Easterwood Airport

Airport
ICAO code: 
KCLL
Summary
ICAO Region: 
NAM
Territory: 
Location: 
Bryan-College Station, Texas,
Coordinates: 
Aerial View: 
30° 35' 36.662" N, 96° 21' 59.325" W
Metar
Observation
KCLL 021516Z 16003KT 1/4SM FG VV002 16/16 A3019 RMK AO2 T01610156
Station
College Station, Easterwood Field
Date/Time
2021-12-02 15:16:00
Wind direction
160°
Wind speed
03 kts
Lowest cloud amount
n/a
Temperature
16.1°C
Dew point
15.6°C
Humidity
96%
Weather condition
fog

Description

Easterwood Airport, also known as Easterwood Field, is a public use, regional airport serving Texas A&M University, Bryan-College Station and Brazos County, located 5 km southwest of College Station.

Climatology

Humid “subtropical” climate (Köppen climate classification Cfa) - characterized by hot, humid summers and cool winters. Significant amounts of precipitation occur in all seasons in most areas. Winter rainfall (and sometimes snowfall) is associated with large storms that the westerlies steer from west to east. Most summer rainfall occurs during thunderstorms and occasional tropical storms (hurricanes).

Runways

Designator Length Width Surface Rops
4/22 1569 46 CON Yes/Yes
10/28 1572 46 ASP Yes/Yes
16/34 2134 46 PEM Yes/Yes
Airport map: 
Aerial View: 

SKYbrary Partners:

Safety knowledge contributed by: